Warning: Javascript must be enabled to use all the features on this page!


Page Loading - Please Wait...

Click to hideNews Bulletins

Peak Streamflow for the Nation

USGS 09430600 MOGOLLON CREEK NEAR CLIFF, NM

Grant County, New Mexico
Hydrologic Unit Code 15040001
Latitude  33°10'00", Longitude 108°38'59" NAD83
Drainage area 69  square miles
Gage datum 5,440 feet above NGVD29
Output formats
Table
Graph
Tab-separated file
peakfq (watstore) format
Reselect output format
Water
Year
Date Gage
Height
(feet)
Stream-
flow
(cfs)
1967 1967-08-12 13.703 10,800
1968 1968-02-26 4.033 380
1969 1969-01-26 3.333 180
1970 1970-07-30 4.013 377
1971 1971-08-21 5.223 944
1972 1971-10-25 6.283 1,720
1973 1972-10-20 9.283 4,620
1974 1974-09-21 2.763 57.0
1975 1975-09-07 6.853 2,130
1976 1976-02-10 4.783 665
1977 1977-08-18 3.173 156
1978 1978-03-01 7.443 2,600
1979 1978-12-18 12.403 10,100
1980 1980-02-15 4.693 1,070
1981 1981-08-02 3.333 431
1982 1982-07-31 2.903 263
1983 1983-08-01 3.203 358
1984 1983-10-02 6.503 1,920
1985 1984-12-27 10.103 6,430
1986 1986-02-16 4.693 946
1987 1987-07-30 2.623 220
1988 1988-09-21 6.623 2,210
1989 1989-09-04 1.923 117
1990 1989-10-05 3.833 609
1991 1991-03-06 3.873 626
1992 1992-05-06 4.393 830
1993 1993-01-08 7.223 2,970
1994 1994-03-20 2.653 288
1995 1994-11-12 8.553 4,420
1996 1996-08-21 4.563 1,010
1997 1997-09-22 5.973 1,230
1998 1998-03-26 4.823 750
1999 1999-08-05 3.293 203
2000 2000-08-11 2.443 65.0
2001 2000-10-11 7.213 2,120
2002 2002-09-11 5.333 919
2003 2003-03-24 2.603 87.0
2004 2004-03-08 3.673 342
2005 2005-02-12   6,6002
2006 2006-08-17 5.34 2,110
2007 2007-04-29 4.96 666
2008 2008-01-28   6,8001,2
2009 2009-09-19 1.83 94.0
2010 2010-01-22 5.81 2,730
2011 2011-08-13 2.73 371
2012 2012-09-06 2.372 2778,C
2013 2013-09-16 7.13 5,000C
2014 2014-09-22 7.20 5,150C
2015 2015-09-22 6.44 3,690C
2016 2016-09-08 6.01 2,900C
2017 2016-12-22 8.81 9,420C
2018 2018-09-02 3.13 170C
2019 2019-09-16 7.11 5,560C
2020 2020-02-23 5.77 2,730C
?
  Peak Gage-Height Qualification Codes.
?
  Peak Streamflow Qualification Codes.